sensor_id;sensor_type;location;lat;lon;timestamp;P1;durP1;ratioP1;P2;durP2;ratioP2
14013;SDS011;49110;52.584;13.408;2024-03-02T00:00:13;93.27;;;85.47;;
14013;SDS011;49110;52.584;13.408;2024-03-02T00:01:14;95.50;;;87.60;;
14013;SDS011;49110;52.584;13.408;2024-03-02T00:02:14;99.67;;;91.70;;
14013;SDS011;49110;52.584;13.408;2024-03-02T00:03:15;101.80;;;93.60;;
14013;SDS011;49110;52.584;13.408;2024-03-02T00:04:15;105.97;;;97.23;;
14013;SDS011;49110;52.584;13.408;2024-03-02T00:06:19;104.70;;;96.07;;
14013;SDS011;49110;52.584;13.408;2024-03-02T00:07:23;95.73;;;87.67;;
14013;SDS011;49110;52.584;13.408;2024-03-02T00:08:25;105.77;;;97.07;;
14013;SDS011;49110;52.584;13.408;2024-03-02T00:09:25;105.47;;;96.97;;
14013;SDS011;49110;52.584;13.408;2024-03-02T00:10:27;104.83;;;96.50;;
14013;SDS011;49110;52.584;13.408;2024-03-02T00:11:37;100.50;;;92.37;;
14013;SDS011;49110;52.584;13.408;2024-03-02T00:12:38;106.20;;;98.03;;
14013;SDS011;49110;52.584;13.408;2024-03-02T00:13:39;102.07;;;93.83;;
14013;SDS011;49110;52.584;13.408;2024-03-02T00:14:40;99.90;;;91.80;;
14013;SDS011;49110;52.584;13.408;2024-03-02T00:15:41;103.00;;;94.80;;
14013;SDS011;49110;52.584;13.408;2024-03-02T00:16:45;99.33;;;91.40;;
14013;SDS011;49110;52.584;13.408;2024-03-02T00:17:46;90.50;;;82.83;;
14013;SDS011;49110;52.584;13.408;2024-03-02T00:18:53;97.67;;;89.67;;
14013;SDS011;49110;52.584;13.408;2024-03-02T00:19:53;103.63;;;95.53;;
14013;SDS011;49110;52.584;13.408;2024-03-02T00:20:55;99.67;;;91.90;;
14013;SDS011;49110;52.584;13.408;2024-03-02T00:22:00;104.73;;;96.60;;
14013;SDS011;49110;52.584;13.408;2024-03-02T00:23:04;103.70;;;95.40;;
14013;SDS011;49110;52.584;13.408;2024-03-02T00:24:19;98.70;;;90.63;;
14013;SDS011;49110;52.584;13.408;2024-03-02T00:25:23;93.93;;;86.30;;
14013;SDS011;49110;52.584;13.408;2024-03-02T00:26:24;100.93;;;92.90;;
14013;SDS011;49110;52.584;13.408;2024-03-02T00:27:26;99.57;;;91.53;;
14013;SDS011;49110;52.584;13.408;2024-03-02T00:28:27;99.13;;;91.07;;
14013;SDS011;49110;52.584;13.408;2024-03-02T00:29:29;94.37;;;86.53;;
14013;SDS011;49110;52.584;13.408;2024-03-02T00:31:55;87.13;;;79.73;;
14013;SDS011;49110;52.584;13.408;2024-03-02T00:32:58;95.70;;;87.83;;
14013;SDS011;49110;52.584;13.408;2024-03-02T00:33:59;93.33;;;85.53;;
14013;SDS011;49110;52.584;13.408;2024-03-02T00:35:04;98.27;;;90.17;;
14013;SDS011;49110;52.584;13.408;2024-03-02T00:36:05;99.20;;;91.47;;
14013;SDS011;49110;52.584;13.408;2024-03-02T00:37:06;94.80;;;86.97;;
14013;SDS011;49110;52.584;13.408;2024-03-02T00:38:08;96.43;;;88.93;;
14013;SDS011;49110;52.584;13.408;2024-03-02T00:39:08;98.57;;;90.77;;
14013;SDS011;49110;52.584;13.408;2024-03-02T00:40:14;95.67;;;88.10;;
14013;SDS011;49110;52.584;13.408;2024-03-02T00:41:21;92.23;;;85.07;;
14013;SDS011;49110;52.584;13.408;2024-03-02T00:42:23;92.90;;;85.77;;
14013;SDS011;49110;52.584;13.408;2024-03-02T00:43:38;94.72;;;87.32;;
14013;SDS011;49110;52.584;13.408;2024-03-02T00:44:45;89.53;;;82.43;;
14013;SDS011;49110;52.584;13.408;2024-03-02T00:45:47;93.10;;;85.80;;
14013;SDS011;49110;52.584;13.408;2024-03-02T00:46:48;92.27;;;85.07;;
14013;SDS011;49110;52.584;13.408;2024-03-02T00:47:48;87.23;;;80.13;;
14013;SDS011;49110;52.584;13.408;2024-03-02T00:48:58;94.67;;;87.27;;
14013;SDS011;49110;52.584;13.408;2024-03-02T00:50:01;90.43;;;83.23;;
14013;SDS011;49110;52.584;13.408;2024-03-02T00:51:02;94.73;;;87.20;;
14013;SDS011;49110;52.584;13.408;2024-03-02T00:52:04;94.60;;;87.10;;
14013;SDS011;49110;52.584;13.408;2024-03-02T00:53:09;92.90;;;85.37;;
14013;SDS011;49110;52.584;13.408;2024-03-02T00:54:11;92.83;;;85.27;;
14013;SDS011;49110;52.584;13.408;2024-03-02T00:55:14;98.60;;;90.57;;
14013;SDS011;49110;52.584;13.408;2024-03-02T00:56:14;94.13;;;86.63;;
14013;SDS011;49110;52.584;13.408;2024-03-02T00:57:15;93.57;;;86.07;;
14013;SDS011;49110;52.584;13.408;2024-03-02T00:58:16;96.63;;;88.80;;
14013;SDS011;49110;52.584;13.408;2024-03-02T00:59:16;96.47;;;88.77;;
14013;SDS011;49110;52.584;13.408;2024-03-02T01:00:17;94.87;;;87.43;;
14013;SDS011;49110;52.584;13.408;2024-03-02T01:01:18;94.80;;;87.30;;
14013;SDS011;49110;52.584;13.408;2024-03-02T01:02:19;96.63;;;88.87;;
14013;SDS011;49110;52.584;13.408;2024-03-02T01:03:20;93.43;;;85.90;;
14013;SDS011;49110;52.584;13.408;2024-03-02T01:04:20;94.83;;;87.33;;
14013;SDS011;49110;52.584;13.408;2024-03-02T01:05:21;94.40;;;87.20;;
14013;SDS011;49110;52.584;13.408;2024-03-02T01:06:21;94.67;;;86.73;;
14013;SDS011;49110;52.584;13.408;2024-03-02T01:07:22;93.53;;;86.27;;
14013;SDS011;49110;52.584;13.408;2024-03-02T01:08:23;96.53;;;88.97;;
14013;SDS011;49110;52.584;13.408;2024-03-02T01:09:24;93.00;;;85.70;;
14013;SDS011;49110;52.584;13.408;2024-03-02T01:10:24;99.33;;;91.77;;
14013;SDS011;49110;52.584;13.408;2024-03-02T01:11:25;96.23;;;88.83;;
14013;SDS011;49110;52.584;13.408;2024-03-02T01:12:26;96.53;;;89.00;;
14013;SDS011;49110;52.584;13.408;2024-03-02T01:13:26;97.17;;;89.50;;
14013;SDS011;49110;52.584;13.408;2024-03-02T01:14:27;91.30;;;83.83;;
14013;SDS011;49110;52.584;13.408;2024-03-02T01:15:28;94.83;;;87.57;;
14013;SDS011;49110;52.584;13.408;2024-03-02T01:16:28;92.50;;;85.37;;
14013;SDS011;49110;52.584;13.408;2024-03-02T01:17:29;96.43;;;88.83;;
14013;SDS011;49110;52.584;13.408;2024-03-02T01:18:29;92.97;;;85.53;;
14013;SDS011;49110;52.584;13.408;2024-03-02T01:19:30;94.63;;;87.20;;
14013;SDS011;49110;52.584;13.408;2024-03-02T01:20:31;93.10;;;85.83;;
14013;SDS011;49110;52.584;13.408;2024-03-02T01:21:31;91.23;;;83.83;;
14013;SDS011;49110;52.584;13.408;2024-03-02T01:22:32;98.17;;;90.53;;
14013;SDS011;49110;52.584;13.408;2024-03-02T01:23:32;96.00;;;88.63;;
14013;SDS011;49110;52.584;13.408;2024-03-02T01:24:33;98.03;;;90.50;;
14013;SDS011;49110;52.584;13.408;2024-03-02T01:25:33;90.80;;;83.80;;
14013;SDS011;49110;52.584;13.408;2024-03-02T01:26:34;94.20;;;86.80;;
14013;SDS011;49110;52.584;13.408;2024-03-02T01:27:34;94.23;;;86.97;;
14013;SDS011;49110;52.584;13.408;2024-03-02T01:28:35;95.47;;;87.87;;
14013;SDS011;49110;52.584;13.408;2024-03-02T01:29:35;96.67;;;88.97;;
14013;SDS011;49110;52.584;13.408;2024-03-02T01:30:36;96.73;;;89.13;;
14013;SDS011;49110;52.584;13.408;2024-03-02T01:31:36;90.27;;;82.90;;
14013;SDS011;49110;52.584;13.408;2024-03-02T01:32:37;96.77;;;89.07;;
14013;SDS011;49110;52.584;13.408;2024-03-02T01:33:38;88.47;;;81.63;;
14013;SDS011;49110;52.584;13.408;2024-03-02T01:34:39;95.27;;;87.80;;
14013;SDS011;49110;52.584;13.408;2024-03-02T01:35:39;91.20;;;84.07;;
14013;SDS011;49110;52.584;13.408;2024-03-02T01:36:40;95.07;;;87.63;;
14013;SDS011;49110;52.584;13.408;2024-03-02T01:37:40;95.37;;;87.90;;
14013;SDS011;49110;52.584;13.408;2024-03-02T01:38:41;98.50;;;90.77;;
14013;SDS011;49110;52.584;13.408;2024-03-02T01:39:41;92.70;;;85.43;;
14013;SDS011;49110;52.584;13.408;2024-03-02T01:40:42;95.53;;;87.90;;
14013;SDS011;49110;52.584;13.408;2024-03-02T01:41:44;98.13;;;90.47;;
14013;SDS011;49110;52.584;13.408;2024-03-02T01:42:45;96.30;;;88.93;;
14013;SDS011;49110;52.584;13.408;2024-03-02T01:43:46;100.30;;;92.47;;
14013;SDS011;49110;52.584;13.408;2024-03-02T01:44:46;90.10;;;82.97;;
14013;SDS011;49110;52.584;13.408;2024-03-02T01:45:47;99.77;;;92.17;;
14013;SDS011;49110;52.584;13.408;2024-03-02T01:46:48;97.97;;;90.33;;
14013;SDS011;49110;52.584;13.408;2024-03-02T01:47:48;96.40;;;88.83;;
14013;SDS011;49110;52.584;13.408;2024-03-02T01:48:49;88.33;;;81.03;;
14013;SDS011;49110;52.584;13.408;2024-03-02T01:49:49;98.37;;;90.57;;
14013;SDS011;49110;52.584;13.408;2024-03-02T01:50:50;96.23;;;88.57;;
14013;SDS011;49110;52.584;13.408;2024-03-02T01:51:51;93.23;;;85.90;;
14013;SDS011;49110;52.584;13.408;2024-03-02T01:52:51;87.47;;;80.63;;
14013;SDS011;49110;52.584;13.408;2024-03-02T01:53:52;95.87;;;88.20;;
14013;SDS011;49110;52.584;13.408;2024-03-02T01:54:53;95.63;;;88.33;;
14013;SDS011;49110;52.584;13.408;2024-03-02T01:55:53;97.90;;;89.97;;
14013;SDS011;49110;52.584;13.408;2024-03-02T01:56:54;102.57;;;94.40;;
14013;SDS011;49110;52.584;13.408;2024-03-02T01:57:54;109.97;;;101.37;;
14013;SDS011;49110;52.584;13.408;2024-03-02T01:58:55;105.70;;;97.07;;
14013;SDS011;49110;52.584;13.408;2024-03-02T01:59:56;101.73;;;93.83;;
14013;SDS011;49110;52.584;13.408;2024-03-02T02:00:56;95.50;;;87.70;;
14013;SDS011;49110;52.584;13.408;2024-03-02T02:01:57;90.63;;;83.47;;
14013;SDS011;49110;52.584;13.408;2024-03-02T02:02:57;89.43;;;82.43;;
14013;SDS011;49110;52.584;13.408;2024-03-02T02:03:58;96.10;;;88.30;;
14013;SDS011;49110;52.584;13.408;2024-03-02T02:04:58;105.40;;;97.37;;
14013;SDS011;49110;52.584;13.408;2024-03-02T02:05:59;106.40;;;98.27;;
14013;SDS011;49110;52.584;13.408;2024-03-02T02:06:59;97.27;;;89.77;;
14013;SDS011;49110;52.584;13.408;2024-03-02T02:08:00;95.03;;;87.73;;
14013;SDS011;49110;52.584;13.408;2024-03-02T02:09:01;96.97;;;89.53;;
14013;SDS011;49110;52.584;13.408;2024-03-02T02:10:02;100.40;;;92.30;;
14013;SDS011;49110;52.584;13.408;2024-03-02T02:11:02;94.53;;;86.83;;
14013;SDS011;49110;52.584;13.408;2024-03-02T02:12:03;92.53;;;85.10;;
14013;SDS011;49110;52.584;13.408;2024-03-02T02:13:06;92.47;;;85.43;;
14013;SDS011;49110;52.584;13.408;2024-03-02T02:14:08;95.27;;;87.70;;
14013;SDS011;49110;52.584;13.408;2024-03-02T02:15:21;98.47;;;90.80;;
14013;SDS011;49110;52.584;13.408;2024-03-02T02:16:21;86.37;;;79.33;;
14013;SDS011;49110;52.584;13.408;2024-03-02T02:17:22;87.00;;;79.90;;
14013;SDS011;49110;52.584;13.408;2024-03-02T02:18:22;87.70;;;80.73;;
14013;SDS011;49110;52.584;13.408;2024-03-02T02:19:23;86.27;;;79.47;;
14013;SDS011;49110;52.584;13.408;2024-03-02T02:20:23;90.23;;;82.97;;
14013;SDS011;49110;52.584;13.408;2024-03-02T02:21:24;92.23;;;84.60;;
14013;SDS011;49110;52.584;13.408;2024-03-02T02:22:26;92.47;;;85.17;;
14013;SDS011;49110;52.584;13.408;2024-03-02T02:23:26;91.97;;;84.77;;
14013;SDS011;49110;52.584;13.408;2024-03-02T02:24:27;90.60;;;83.27;;
14013;SDS011;49110;52.584;13.408;2024-03-02T02:25:27;91.77;;;84.33;;
14013;SDS011;49110;52.584;13.408;2024-03-02T02:26:29;93.33;;;85.97;;
14013;SDS011;49110;52.584;13.408;2024-03-02T02:27:29;100.60;;;92.80;;
14013;SDS011;49110;52.584;13.408;2024-03-02T02:28:30;91.80;;;84.57;;
14013;SDS011;49110;52.584;13.408;2024-03-02T02:29:31;89.90;;;82.93;;
14013;SDS011;49110;52.584;13.408;2024-03-02T02:30:32;89.80;;;82.73;;
14013;SDS011;49110;52.584;13.408;2024-03-02T02:31:39;92.93;;;85.07;;
14013;SDS011;49110;52.584;13.408;2024-03-02T02:32:40;86.57;;;79.67;;
14013;SDS011;49110;52.584;13.408;2024-03-02T02:33:40;88.50;;;81.23;;
14013;SDS011;49110;52.584;13.408;2024-03-02T02:34:41;90.17;;;83.00;;
14013;SDS011;49110;52.584;13.408;2024-03-02T02:35:41;96.07;;;88.33;;
14013;SDS011;49110;52.584;13.408;2024-03-02T02:36:42;88.23;;;81.10;;
14013;SDS011;49110;52.584;13.408;2024-03-02T02:37:43;86.43;;;79.50;;
14013;SDS011;49110;52.584;13.408;2024-03-02T02:38:46;89.03;;;81.73;;
14013;SDS011;49110;52.584;13.408;2024-03-02T02:39:48;86.10;;;79.03;;
14013;SDS011;49110;52.584;13.408;2024-03-02T02:40:49;91.57;;;84.17;;
14013;SDS011;49110;52.584;13.408;2024-03-02T02:41:49;89.93;;;82.80;;
14013;SDS011;49110;52.584;13.408;2024-03-02T02:42:50;89.73;;;82.70;;
14013;SDS011;49110;52.584;13.408;2024-03-02T02:43:53;89.10;;;81.90;;
14013;SDS011;49110;52.584;13.408;2024-03-02T02:44:54;86.53;;;79.53;;
14013;SDS011;49110;52.584;13.408;2024-03-02T02:45:54;89.03;;;81.97;;
14013;SDS011;49110;52.584;13.408;2024-03-02T02:46:55;85.97;;;79.17;;
14013;SDS011;49110;52.584;13.408;2024-03-02T02:47:55;92.70;;;85.33;;
14013;SDS011;49110;52.584;13.408;2024-03-02T02:48:56;92.90;;;85.30;;
14013;SDS011;49110;52.584;13.408;2024-03-02T02:49:57;91.00;;;83.90;;
14013;SDS011;49110;52.584;13.408;2024-03-02T02:50:57;90.17;;;82.77;;
14013;SDS011;49110;52.584;13.408;2024-03-02T02:51:58;90.80;;;83.40;;
14013;SDS011;49110;52.584;13.408;2024-03-02T02:52:58;89.90;;;82.70;;
14013;SDS011;49110;52.584;13.408;2024-03-02T02:53:59;90.00;;;82.90;;
14013;SDS011;49110;52.584;13.408;2024-03-02T02:54:59;90.13;;;83.07;;
14013;SDS011;49110;52.584;13.408;2024-03-02T02:56:00;91.03;;;84.00;;
14013;SDS011;49110;52.584;13.408;2024-03-02T02:57:00;90.17;;;83.03;;
14013;SDS011;49110;52.584;13.408;2024-03-02T02:58:01;87.87;;;80.90;;
14013;SDS011;49110;52.584;13.408;2024-03-02T02:59:01;92.27;;;85.07;;
14013;SDS011;49110;52.584;13.408;2024-03-02T03:00:04;89.67;;;82.37;;
14013;SDS011;49110;52.584;13.408;2024-03-02T03:01:10;92.23;;;84.93;;
14013;SDS011;49110;52.584;13.408;2024-03-02T03:02:10;94.43;;;86.93;;
14013;SDS011;49110;52.584;13.408;2024-03-02T03:03:11;92.80;;;85.27;;
14013;SDS011;49110;52.584;13.408;2024-03-02T03:04:11;93.07;;;85.90;;
14013;SDS011;49110;52.584;13.408;2024-03-02T03:05:12;93.47;;;86.10;;
14013;SDS011;49110;52.584;13.408;2024-03-02T03:06:14;93.00;;;85.67;;
14013;SDS011;49110;52.584;13.408;2024-03-02T03:07:14;94.67;;;87.13;;
14013;SDS011;49110;52.584;13.408;2024-03-02T03:08:14;94.50;;;87.30;;
14013;SDS011;49110;52.584;13.408;2024-03-02T03:09:16;95.47;;;87.87;;
14013;SDS011;49110;52.584;13.408;2024-03-02T03:10:16;99.70;;;91.80;;
14013;SDS011;49110;52.584;13.408;2024-03-02T03:11:17;99.67;;;91.40;;
14013;SDS011;49110;52.584;13.408;2024-03-02T03:12:17;97.20;;;89.70;;
14013;SDS011;49110;52.584;13.408;2024-03-02T03:13:18;94.73;;;87.37;;
14013;SDS011;49110;52.584;13.408;2024-03-02T03:14:18;98.10;;;90.20;;
14013;SDS011;49110;52.584;13.408;2024-03-02T03:15:19;97.67;;;90.17;;
14013;SDS011;49110;52.584;13.408;2024-03-02T03:16:20;99.53;;;91.40;;
14013;SDS011;49110;52.584;13.408;2024-03-02T03:17:21;100.50;;;92.60;;
14013;SDS011;49110;52.584;13.408;2024-03-02T03:18:22;100.10;;;92.33;;
14013;SDS011;49110;52.584;13.408;2024-03-02T03:19:23;100.80;;;93.10;;
14013;SDS011;49110;52.584;13.408;2024-03-02T03:20:23;99.93;;;92.27;;
14013;SDS011;49110;52.584;13.408;2024-03-02T03:21:24;101.73;;;93.83;;
14013;SDS011;49110;52.584;13.408;2024-03-02T03:22:24;97.90;;;90.43;;
14013;SDS011;49110;52.584;13.408;2024-03-02T03:23:25;105.03;;;96.90;;
14013;SDS011;49110;52.584;13.408;2024-03-02T03:24:25;106.37;;;97.70;;
14013;SDS011;49110;52.584;13.408;2024-03-02T03:25:26;110.17;;;101.40;;
14013;SDS011;49110;52.584;13.408;2024-03-02T03:26:26;107.63;;;99.43;;
14013;SDS011;49110;52.584;13.408;2024-03-02T03:27:27;106.20;;;98.00;;
14013;SDS011;49110;52.584;13.408;2024-03-02T03:28:27;107.87;;;99.60;;
14013;SDS011;49110;52.584;13.408;2024-03-02T03:29:28;109.83;;;101.17;;
14013;SDS011;49110;52.584;13.408;2024-03-02T03:30:28;111.63;;;103.13;;
14013;SDS011;49110;52.584;13.408;2024-03-02T03:31:29;108.43;;;100.10;;
14013;SDS011;49110;52.584;13.408;2024-03-02T03:32:29;111.83;;;103.27;;
14013;SDS011;49110;52.584;13.408;2024-03-02T03:33:30;110.00;;;101.20;;
14013;SDS011;49110;52.584;13.408;2024-03-02T03:34:33;116.83;;;107.47;;
14013;SDS011;49110;52.584;13.408;2024-03-02T03:35:34;116.80;;;107.60;;
14013;SDS011;49110;52.584;13.408;2024-03-02T03:36:35;114.23;;;105.37;;
14013;SDS011;49110;52.584;13.408;2024-03-02T03:37:38;120.23;;;111.03;;
14013;SDS011;49110;52.584;13.408;2024-03-02T03:38:38;115.90;;;107.07;;
14013;SDS011;49110;52.584;13.408;2024-03-02T03:39:39;115.43;;;106.60;;
14013;SDS011;49110;52.584;13.408;2024-03-02T03:40:39;116.07;;;107.20;;
14013;SDS011;49110;52.584;13.408;2024-03-02T03:41:42;113.63;;;105.00;;
14013;SDS011;49110;52.584;13.408;2024-03-02T03:42:43;112.90;;;104.00;;
14013;SDS011;49110;52.584;13.408;2024-03-02T03:43:44;113.90;;;104.60;;
14013;SDS011;49110;52.584;13.408;2024-03-02T03:44:44;115.70;;;106.90;;
14013;SDS011;49110;52.584;13.408;2024-03-02T03:45:45;119.93;;;110.50;;
14013;SDS011;49110;52.584;13.408;2024-03-02T03:46:45;127.50;;;117.23;;
14013;SDS011;49110;52.584;13.408;2024-03-02T03:47:46;123.67;;;114.50;;
14013;SDS011;49110;52.584;13.408;2024-03-02T03:48:46;122.37;;;113.33;;
14013;SDS011;49110;52.584;13.408;2024-03-02T03:49:47;118.07;;;109.47;;
14013;SDS011;49110;52.584;13.408;2024-03-02T03:50:47;125.00;;;115.50;;
14013;SDS011;49110;52.584;13.408;2024-03-02T03:51:48;119.33;;;110.73;;
14013;SDS011;49110;52.584;13.408;2024-03-02T03:52:48;120.60;;;111.40;;
14013;SDS011;49110;52.584;13.408;2024-03-02T03:53:49;126.47;;;116.87;;
14013;SDS011;49110;52.584;13.408;2024-03-02T03:54:49;130.47;;;120.50;;
14013;SDS011;49110;52.584;13.408;2024-03-02T03:55:50;123.90;;;114.63;;
14013;SDS011;49110;52.584;13.408;2024-03-02T03:56:50;120.23;;;111.30;;
14013;SDS011;49110;52.584;13.408;2024-03-02T03:57:51;120.47;;;111.53;;
14013;SDS011;49110;52.584;13.408;2024-03-02T03:58:51;119.50;;;110.40;;
14013;SDS011;49110;52.584;13.408;2024-03-02T03:59:52;118.73;;;110.00;;
14013;SDS011;49110;52.584;13.408;2024-03-02T04:00:53;118.47;;;109.63;;
14013;SDS011;49110;52.584;13.408;2024-03-02T04:01:54;118.20;;;109.63;;
14013;SDS011;49110;52.584;13.408;2024-03-02T04:02:54;117.23;;;108.53;;
14013;SDS011;49110;52.584;13.408;2024-03-02T04:03:55;115.67;;;106.90;;
14013;SDS011;49110;52.584;13.408;2024-03-02T04:04:55;116.57;;;108.17;;
14013;SDS011;49110;52.584;13.408;2024-03-02T04:05:56;122.60;;;113.40;;
14013;SDS011;49110;52.584;13.408;2024-03-02T04:06:56;117.50;;;109.03;;
14013;SDS011;49110;52.584;13.408;2024-03-02T04:07:57;114.97;;;106.47;;
14013;SDS011;49110;52.584;13.408;2024-03-02T04:08:57;117.87;;;109.23;;
14013;SDS011;49110;52.584;13.408;2024-03-02T04:09:57;119.77;;;111.07;;
14013;SDS011;49110;52.584;13.408;2024-03-02T04:10:58;116.87;;;108.27;;
14013;SDS011;49110;52.584;13.408;2024-03-02T04:11:58;114.20;;;105.77;;
14013;SDS011;49110;52.584;13.408;2024-03-02T04:12:59;118.63;;;109.93;;
14013;SDS011;49110;52.584;13.408;2024-03-02T04:13:59;114.97;;;106.57;;
14013;SDS011;49110;52.584;13.408;2024-03-02T04:15:01;117.00;;;108.50;;
14013;SDS011;49110;52.584;13.408;2024-03-02T04:16:01;113.20;;;104.87;;
14013;SDS011;49110;52.584;13.408;2024-03-02T04:17:03;119.00;;;110.33;;
14013;SDS011;49110;52.584;13.408;2024-03-02T04:18:04;115.50;;;106.83;;
14013;SDS011;49110;52.584;13.408;2024-03-02T04:19:05;113.07;;;104.87;;
14013;SDS011;49110;52.584;13.408;2024-03-02T04:20:05;112.57;;;104.67;;
14013;SDS011;49110;52.584;13.408;2024-03-02T04:21:06;115.83;;;107.60;;
14013;SDS011;49110;52.584;13.408;2024-03-02T04:22:06;111.07;;;103.17;;
14013;SDS011;49110;52.584;13.408;2024-03-02T04:23:07;112.50;;;104.47;;
14013;SDS011;49110;52.584;13.408;2024-03-02T04:24:07;111.73;;;103.83;;
14013;SDS011;49110;52.584;13.408;2024-03-02T04:25:08;111.20;;;103.00;;
14013;SDS011;49110;52.584;13.408;2024-03-02T04:26:09;117.43;;;108.83;;
14013;SDS011;49110;52.584;13.408;2024-03-02T04:27:09;115.60;;;107.03;;
14013;SDS011;49110;52.584;13.408;2024-03-02T04:28:10;112.43;;;104.47;;
14013;SDS011;49110;52.584;13.408;2024-03-02T04:29:12;115.20;;;107.07;;
14013;SDS011;49110;52.584;13.408;2024-03-02T04:30:12;120.63;;;111.63;;
14013;SDS011;49110;52.584;13.408;2024-03-02T04:31:14;118.13;;;109.77;;
14013;SDS011;49110;52.584;13.408;2024-03-02T04:32:15;120.63;;;112.07;;
14013;SDS011;49110;52.584;13.408;2024-03-02T04:33:16;115.27;;;107.27;;
14013;SDS011;49110;52.584;13.408;2024-03-02T04:34:16;116.03;;;107.70;;
14013;SDS011;49110;52.584;13.408;2024-03-02T04:35:17;111.73;;;104.10;;
14013;SDS011;49110;52.584;13.408;2024-03-02T04:36:17;112.97;;;104.87;;
14013;SDS011;49110;52.584;13.408;2024-03-02T04:37:18;113.10;;;105.07;;
14013;SDS011;49110;52.584;13.408;2024-03-02T04:38:18;114.50;;;106.20;;
14013;SDS011;49110;52.584;13.408;2024-03-02T04:39:19;109.47;;;101.47;;
14013;SDS011;49110;52.584;13.408;2024-03-02T04:40:19;112.23;;;103.83;;
14013;SDS011;49110;52.584;13.408;2024-03-02T04:41:20;110.60;;;102.50;;
14013;SDS011;49110;52.584;13.408;2024-03-02T04:42:20;113.47;;;105.63;;
14013;SDS011;49110;52.584;13.408;2024-03-02T04:43:21;112.90;;;104.63;;
14013;SDS011;49110;52.584;13.408;2024-03-02T04:44:21;112.23;;;104.47;;
14013;SDS011;49110;52.584;13.408;2024-03-02T04:45:23;114.50;;;106.37;;
14013;SDS011;49110;52.584;13.408;2024-03-02T04:46:23;113.77;;;105.70;;
14013;SDS011;49110;52.584;13.408;2024-03-02T04:47:24;113.27;;;105.33;;
14013;SDS011;49110;52.584;13.408;2024-03-02T04:48:25;114.00;;;105.77;;
14013;SDS011;49110;52.584;13.408;2024-03-02T04:49:26;115.17;;;106.77;;
14013;SDS011;49110;52.584;13.408;2024-03-02T04:50:26;122.50;;;113.90;;
14013;SDS011;49110;52.584;13.408;2024-03-02T04:51:27;118.10;;;109.43;;
14013;SDS011;49110;52.584;13.408;2024-03-02T04:52:27;121.00;;;112.40;;
14013;SDS011;49110;52.584;13.408;2024-03-02T04:53:27;117.30;;;109.13;;
14013;SDS011;49110;52.584;13.408;2024-03-02T04:54:28;115.30;;;107.43;;
14013;SDS011;49110;52.584;13.408;2024-03-02T04:55:28;112.70;;;105.17;;
14013;SDS011;49110;52.584;13.408;2024-03-02T04:56:29;112.93;;;105.00;;
14013;SDS011;49110;52.584;13.408;2024-03-02T04:57:32;110.67;;;102.90;;
14013;SDS011;49110;52.584;13.408;2024-03-02T04:58:33;114.13;;;106.07;;
14013;SDS011;49110;52.584;13.408;2024-03-02T04:59:33;111.23;;;103.40;;
14013;SDS011;49110;52.584;13.408;2024-03-02T05:00:34;114.00;;;105.87;;
14013;SDS011;49110;52.584;13.408;2024-03-02T05:01:35;111.30;;;103.57;;
14013;SDS011;49110;52.584;13.408;2024-03-02T05:02:35;108.43;;;100.57;;
14013;SDS011;49110;52.584;13.408;2024-03-02T05:03:36;112.73;;;104.67;;
14013;SDS011;49110;52.584;13.408;2024-03-02T05:04:36;110.53;;;102.80;;
14013;SDS011;49110;52.584;13.408;2024-03-02T05:05:37;110.17;;;102.37;;
14013;SDS011;49110;52.584;13.408;2024-03-02T05:06:38;114.80;;;106.70;;
14013;SDS011;49110;52.584;13.408;2024-03-02T05:07:42;111.30;;;103.10;;
14013;SDS011;49110;52.584;13.408;2024-03-02T05:08:43;114.63;;;106.53;;
14013;SDS011;49110;52.584;13.408;2024-03-02T05:09:44;115.47;;;107.47;;
14013;SDS011;49110;52.584;13.408;2024-03-02T05:10:45;109.87;;;102.17;;
14013;SDS011;49110;52.584;13.408;2024-03-02T05:11:45;112.63;;;104.63;;
14013;SDS011;49110;52.584;13.408;2024-03-02T05:12:59;107.83;;;100.53;;
14013;SDS011;49110;52.584;13.408;2024-03-02T05:13:59;111.13;;;103.33;;
14013;SDS011;49110;52.584;13.408;2024-03-02T05:15:00;110.40;;;102.70;;
14013;SDS011;49110;52.584;13.408;2024-03-02T05:16:01;107.37;;;100.07;;
14013;SDS011;49110;52.584;13.408;2024-03-02T05:17:02;112.90;;;105.13;;
14013;SDS011;49110;52.584;13.408;2024-03-02T05:18:02;111.97;;;104.37;;
14013;SDS011;49110;52.584;13.408;2024-03-02T05:19:05;115.07;;;106.67;;
14013;SDS011;49110;52.584;13.408;2024-03-02T05:20:06;116.23;;;107.87;;
14013;SDS011;49110;52.584;13.408;2024-03-02T05:21:08;114.47;;;106.50;;
14013;SDS011;49110;52.584;13.408;2024-03-02T05:22:08;111.23;;;103.53;;
14013;SDS011;49110;52.584;13.408;2024-03-02T05:23:09;115.33;;;106.93;;
14013;SDS011;49110;52.584;13.408;2024-03-02T05:24:09;114.40;;;106.50;;
14013;SDS011;49110;52.584;13.408;2024-03-02T05:25:10;112.63;;;104.70;;
14013;SDS011;49110;52.584;13.408;2024-03-02T05:26:10;114.13;;;106.10;;
14013;SDS011;49110;52.584;13.408;2024-03-02T05:27:12;115.37;;;107.27;;
14013;SDS011;49110;52.584;13.408;2024-03-02T05:28:13;113.27;;;105.30;;
14013;SDS011;49110;52.584;13.408;2024-03-02T05:29:13;112.70;;;104.57;;
14013;SDS011;49110;52.584;13.408;2024-03-02T05:30:14;111.20;;;103.73;;
14013;SDS011;49110;52.584;13.408;2024-03-02T05:31:15;114.07;;;106.00;;
14013;SDS011;49110;52.584;13.408;2024-03-02T05:32:16;103.57;;;96.27;;
14013;SDS011;49110;52.584;13.408;2024-03-02T05:33:16;108.47;;;101.07;;
14013;SDS011;49110;52.584;13.408;2024-03-02T05:34:17;112.53;;;104.77;;
14013;SDS011;49110;52.584;13.408;2024-03-02T05:35:18;111.03;;;102.87;;
14013;SDS011;49110;52.584;13.408;2024-03-02T05:36:18;100.60;;;93.53;;
14013;SDS011;49110;52.584;13.408;2024-03-02T05:37:20;100.70;;;93.43;;
14013;SDS011;49110;52.584;13.408;2024-03-02T05:38:21;96.83;;;89.63;;
14013;SDS011;49110;52.584;13.408;2024-03-02T05:39:21;100.23;;;93.20;;
14013;SDS011;49110;52.584;13.408;2024-03-02T05:40:22;100.37;;;93.10;;
14013;SDS011;49110;52.584;13.408;2024-03-02T05:41:22;103.93;;;96.03;;
14013;SDS011;49110;52.584;13.408;2024-03-02T05:42:23;103.00;;;95.37;;
14013;SDS011;49110;52.584;13.408;2024-03-02T05:43:23;101.97;;;94.47;;
14013;SDS011;49110;52.584;13.408;2024-03-02T05:44:24;104.00;;;96.40;;
14013;SDS011;49110;52.584;13.408;2024-03-02T05:45:24;97.40;;;90.53;;
14013;SDS011;49110;52.584;13.408;2024-03-02T05:46:25;103.77;;;95.93;;
14013;SDS011;49110;52.584;13.408;2024-03-02T05:47:25;114.43;;;106.67;;
14013;SDS011;49110;52.584;13.408;2024-03-02T05:48:26;104.00;;;96.73;;
14013;SDS011;49110;52.584;13.408;2024-03-02T05:49:26;109.67;;;101.77;;
14013;SDS011;49110;52.584;13.408;2024-03-02T05:50:26;102.57;;;95.10;;